sensor_id;sensor_type;location;lat;lon;timestamp;pressure;altitude;pressure_sealevel;temperature;humidity
32735;BME280;19112;51.076;3.706;2023-04-27T00:01:52;101839.00;;;9.19;57.82
32735;BME280;19112;51.076;3.706;2023-04-27T00:04:18;101845.69;;;9.14;58.22
32735;BME280;19112;51.076;3.706;2023-04-27T00:06:45;101883.22;;;9.29;58.43
32735;BME280;19112;51.076;3.706;2023-04-27T00:09:11;101874.84;;;9.20;58.27
32735;BME280;19112;51.076;3.706;2023-04-27T00:11:36;101883.63;;;9.21;58.07
32735;BME280;19112;51.076;3.706;2023-04-27T00:14:02;101862.56;;;9.03;58.71
32735;BME280;19112;51.076;3.706;2023-04-27T00:16:28;101836.31;;;8.86;58.69
32735;BME280;19112;51.076;3.706;2023-04-27T00:18:54;101885.25;;;9.18;58.58
32735;BME280;19112;51.076;3.706;2023-04-27T00:21:20;101772.78;;;8.58;58.42
32735;BME280;19112;51.076;3.706;2023-04-27T00:23:46;101833.88;;;8.89;58.37
32735;BME280;19112;51.076;3.706;2023-04-27T00:26:12;101886.91;;;9.16;58.19
32735;BME280;19112;51.076;3.706;2023-04-27T00:28:37;101893.75;;;9.14;58.64
32735;BME280;19112;51.076;3.706;2023-04-27T00:31:03;101887.28;;;9.08;58.41
32735;BME280;19112;51.076;3.706;2023-04-27T00:33:30;101886.38;;;9.07;58.51
32735;BME280;19112;51.076;3.706;2023-04-27T00:36:00;101790.66;;;8.50;58.81
32735;BME280;19112;51.076;3.706;2023-04-27T00:38:28;101928.59;;;9.28;58.24
32735;BME280;19112;51.076;3.706;2023-04-27T00:41:05;101833.53;;;8.83;58.04
32735;BME280;19112;51.076;3.706;2023-04-27T00:43:32;101836.81;;;8.79;58.36
32735;BME280;19112;51.076;3.706;2023-04-27T00:45:59;101875.56;;;9.01;57.88
32735;BME280;19112;51.076;3.706;2023-04-27T00:48:25;101817.13;;;8.71;58.34
32735;BME280;19112;51.076;3.706;2023-04-27T00:50:51;101856.91;;;8.95;58.06
32735;BME280;19112;51.076;3.706;2023-04-27T00:53:17;101775.97;;;8.37;58.02
32735;BME280;19112;51.076;3.706;2023-04-27T00:55:44;101705.75;;;7.99;57.90
32735;BME280;19112;51.076;3.706;2023-04-27T00:58:10;101858.53;;;8.78;58.18
32735;BME280;19112;51.076;3.706;2023-04-27T01:00:36;101846.34;;;8.79;58.25
32735;BME280;19112;51.076;3.706;2023-04-27T01:03:03;101827.25;;;8.65;58.00
32735;BME280;19112;51.076;3.706;2023-04-27T01:05:29;101805.97;;;8.59;58.04
32735;BME280;19112;51.076;3.706;2023-04-27T01:07:55;101721.78;;;8.05;57.80
32735;BME280;19112;51.076;3.706;2023-04-27T01:10:21;101817.16;;;8.56;57.99
32735;BME280;19112;51.076;3.706;2023-04-27T01:12:47;101855.28;;;8.82;57.62
32735;BME280;19112;51.076;3.706;2023-04-27T01:15:13;101908.44;;;9.11;57.54
32735;BME280;19112;51.076;3.706;2023-04-27T01:17:39;101685.41;;;7.94;57.55
32735;BME280;19112;51.076;3.706;2023-04-27T01:20:06;101802.53;;;8.60;57.80
32735;BME280;19112;51.076;3.706;2023-04-27T01:22:35;101809.75;;;8.64;57.58
32735;BME280;19112;51.076;3.706;2023-04-27T01:25:01;101579.13;;;7.33;57.59
32735;BME280;19112;51.076;3.706;2023-04-27T01:27:27;101809.00;;;8.66;57.83
32735;BME280;19112;51.076;3.706;2023-04-27T01:29:53;101834.19;;;8.79;57.74
32735;BME280;19112;51.076;3.706;2023-04-27T01:32:19;101831.38;;;8.76;58.17
32735;BME280;19112;51.076;3.706;2023-04-27T01:34:45;101752.06;;;8.31;58.33
32735;BME280;19112;51.076;3.706;2023-04-27T01:37:11;101883.44;;;9.01;58.18
32735;BME280;19112;51.076;3.706;2023-04-27T01:39:37;101798.75;;;8.55;58.36
32735;BME280;19112;51.076;3.706;2023-04-27T01:42:03;101871.59;;;8.93;58.62
32735;BME280;19112;51.076;3.706;2023-04-27T01:44:29;101829.25;;;8.69;58.18
32735;BME280;19112;51.076;3.706;2023-04-27T01:46:55;101778.31;;;8.48;58.20
32735;BME280;19112;51.076;3.706;2023-04-27T01:49:21;101871.69;;;8.95;58.29
32735;BME280;19112;51.076;3.706;2023-04-27T01:51:47;101735.28;;;8.13;58.33
32735;BME280;19112;51.076;3.706;2023-04-27T01:54:13;101783.00;;;8.38;58.65
32735;BME280;19112;51.076;3.706;2023-04-27T01:56:38;101769.56;;;8.32;58.62
32735;BME280;19112;51.076;3.706;2023-04-27T01:59:04;101827.91;;;8.61;58.23
32735;BME280;19112;51.076;3.706;2023-04-27T02:01:30;101746.09;;;8.19;58.31
32735;BME280;19112;51.076;3.706;2023-04-27T02:03:56;101812.28;;;8.62;58.79
32735;BME280;19112;51.076;3.706;2023-04-27T02:06:22;101773.38;;;8.37;58.81
32735;BME280;19112;51.076;3.706;2023-04-27T02:08:47;101726.81;;;8.17;58.30
32735;BME280;19112;51.076;3.706;2023-04-27T02:11:13;101765.03;;;8.30;58.61
32735;BME280;19112;51.076;3.706;2023-04-27T02:13:39;101663.78;;;7.67;58.77
32735;BME280;19112;51.076;3.706;2023-04-27T02:16:05;101856.75;;;8.77;58.86
32735;BME280;19112;51.076;3.706;2023-04-27T02:18:31;101831.63;;;8.50;58.84
32735;BME280;19112;51.076;3.706;2023-04-27T02:20:58;101778.66;;;8.24;58.85
32735;BME280;19112;51.076;3.706;2023-04-27T02:23:24;101855.44;;;8.69;58.91
32735;BME280;19112;51.076;3.706;2023-04-27T02:25:50;101819.84;;;8.42;58.99
32735;BME280;19112;51.076;3.706;2023-04-27T02:28:16;101723.25;;;7.85;58.90
32735;BME280;19112;51.076;3.706;2023-04-27T02:30:41;101828.91;;;8.33;59.39
32735;BME280;19112;51.076;3.706;2023-04-27T02:33:07;101907.03;;;8.57;59.22
32735;BME280;19112;51.076;3.706;2023-04-27T02:35:33;101741.81;;;7.75;59.52
32735;BME280;19112;51.076;3.706;2023-04-27T02:37:59;101645.97;;;7.30;59.45
32735;BME280;19112;51.076;3.706;2023-04-27T02:40:25;101529.34;;;6.56;58.92
32735;BME280;19112;51.076;3.706;2023-04-27T02:42:51;101828.38;;;8.24;59.49
32735;BME280;19112;51.076;3.706;2023-04-27T02:45:17;101805.63;;;8.08;59.36
32735;BME280;19112;51.076;3.706;2023-04-27T02:47:43;101770.66;;;7.92;59.38
32735;BME280;19112;51.076;3.706;2023-04-27T02:50:09;101829.91;;;8.21;59.44
32735;BME280;19112;51.076;3.706;2023-04-27T02:52:35;101858.56;;;8.19;59.68
32735;BME280;19112;51.076;3.706;2023-04-27T02:55:01;101831.44;;;8.17;59.49
32735;BME280;19112;51.076;3.706;2023-04-27T02:57:27;101733.44;;;7.66;59.68
32735;BME280;19112;51.076;3.706;2023-04-27T02:59:53;101814.94;;;8.03;59.36
32735;BME280;19112;51.076;3.706;2023-04-27T03:02:18;101698.28;;;7.31;59.76
32735;BME280;19112;51.076;3.706;2023-04-27T03:04:44;101785.63;;;7.79;60.09
32735;BME280;19112;51.076;3.706;2023-04-27T03:07:10;101840.81;;;7.99;60.42
32735;BME280;19112;51.076;3.706;2023-04-27T03:09:39;101780.41;;;7.65;60.51
32735;BME280;19112;51.076;3.706;2023-04-27T03:12:05;101842.44;;;7.97;60.30
32735;BME280;19112;51.076;3.706;2023-04-27T03:14:31;101646.56;;;6.96;60.12
32735;BME280;19112;51.076;3.706;2023-04-27T03:16:56;101872.94;;;8.26;60.16
32735;BME280;19112;51.076;3.706;2023-04-27T03:19:22;101826.75;;;7.97;59.98
32735;BME280;19112;51.076;3.706;2023-04-27T03:21:48;101788.06;;;7.76;60.01
32735;BME280;19112;51.076;3.706;2023-04-27T03:24:14;101871.50;;;8.16;60.56
32735;BME280;19112;51.076;3.706;2023-04-27T03:26:41;101799.78;;;7.68;60.71
32735;BME280;19112;51.076;3.706;2023-04-27T03:29:07;101863.00;;;8.05;60.37
32735;BME280;19112;51.076;3.706;2023-04-27T03:31:32;101793.72;;;7.54;60.66
32735;BME280;19112;51.076;3.706;2023-04-27T03:33:58;101879.44;;;8.18;60.69
32735;BME280;19112;51.076;3.706;2023-04-27T03:36:24;101884.28;;;8.11;61.01
32735;BME280;19112;51.076;3.706;2023-04-27T03:38:51;101761.25;;;7.36;60.56
32735;BME280;19112;51.076;3.706;2023-04-27T03:41:17;101891.66;;;8.04;61.24
32735;BME280;19112;51.076;3.706;2023-04-27T03:43:43;101839.00;;;7.83;60.91
32735;BME280;19112;51.076;3.706;2023-04-27T03:46:09;101711.66;;;7.08;60.97
32735;BME280;19112;51.076;3.706;2023-04-27T03:48:34;101786.84;;;7.42;61.08
32735;BME280;19112;51.076;3.706;2023-04-27T03:51:01;101817.19;;;7.68;60.99
32735;BME280;19112;51.076;3.706;2023-04-27T03:53:27;101714.25;;;7.08;61.16
32735;BME280;19112;51.076;3.706;2023-04-27T03:55:52;101886.53;;;8.05;60.76
32735;BME280;19112;51.076;3.706;2023-04-27T03:58:18;101807.97;;;7.59;60.75
32735;BME280;19112;51.076;3.706;2023-04-27T04:00:44;101855.41;;;7.80;60.70
32735;BME280;19112;51.076;3.706;2023-04-27T04:03:10;101905.19;;;7.97;61.15
32735;BME280;19112;51.076;3.706;2023-04-27T04:05:36;101803.50;;;7.44;61.28
32735;BME280;19112;51.076;3.706;2023-04-27T04:08:02;101838.22;;;7.56;61.10
32735;BME280;19112;51.076;3.706;2023-04-27T04:10:28;101788.94;;;7.47;61.36
32735;BME280;19112;51.076;3.706;2023-04-27T04:12:54;101736.34;;;7.13;61.42
32735;BME280;19112;51.076;3.706;2023-04-27T04:15:19;101802.09;;;7.49;61.34
32735;BME280;19112;51.076;3.706;2023-04-27T04:17:45;101870.47;;;7.84;61.13
32735;BME280;19112;51.076;3.706;2023-04-27T04:20:12;101859.00;;;7.82;61.11
32735;BME280;19112;51.076;3.706;2023-04-27T04:22:38;101822.38;;;7.53;61.19
32735;BME280;19112;51.076;3.706;2023-04-27T04:25:05;101862.34;;;7.80;61.35
32735;BME280;19112;51.076;3.706;2023-04-27T04:27:31;101545.91;;;6.01;61.66
32735;BME280;19112;51.076;3.706;2023-04-27T04:29:58;101877.41;;;7.84;61.26
32735;BME280;19112;51.076;3.706;2023-04-27T04:32:26;101804.91;;;7.52;61.10
32735;BME280;19112;51.076;3.706;2023-04-27T04:34:56;101812.91;;;7.55;61.29
32735;BME280;19112;51.076;3.706;2023-04-27T04:37:23;101857.38;;;7.70;61.68
32735;BME280;19112;51.076;3.706;2023-04-27T04:39:49;101536.81;;;5.94;61.66
32735;BME280;19112;51.076;3.706;2023-04-27T04:42:15;101652.13;;;6.60;61.71
32735;BME280;19112;51.076;3.706;2023-04-27T04:44:41;101913.31;;;8.01;61.69
32735;BME280;19112;51.076;3.706;2023-04-27T04:47:07;101828.88;;;7.59;61.32
32735;BME280;19112;51.076;3.706;2023-04-27T04:49:35;101819.31;;;7.60;61.32
32735;BME280;19112;51.076;3.706;2023-04-27T04:52:01;101687.28;;;6.79;61.17
32735;BME280;19112;51.076;3.706;2023-04-27T04:54:29;101646.50;;;6.67;61.11
32735;BME280;19112;51.076;3.706;2023-04-27T04:56:55;101577.75;;;6.23;60.90
32735;BME280;19112;51.076;3.706;2023-04-27T04:59:23;101810.97;;;7.38;61.19
32735;BME280;19112;51.076;3.706;2023-04-27T05:01:49;101878.06;;;7.95;61.25
32735;BME280;19112;51.076;3.706;2023-04-27T05:04:15;101850.16;;;7.80;61.30
32735;BME280;19112;51.076;3.706;2023-04-27T05:06:43;101917.03;;;8.20;61.64
32735;BME280;19112;51.076;3.706;2023-04-27T05:09:08;101761.97;;;7.33;61.27
32735;BME280;19112;51.076;3.706;2023-04-27T05:11:34;101850.19;;;7.95;61.01
32735;BME280;19112;51.076;3.706;2023-04-27T05:14:00;101897.81;;;8.19;60.88
32735;BME280;19112;51.076;3.706;2023-04-27T05:16:26;101939.53;;;8.46;61.14
32735;BME280;19112;51.076;3.706;2023-04-27T05:18:52;101890.72;;;8.31;60.80
32735;BME280;19112;51.076;3.706;2023-04-27T05:21:19;101651.25;;;7.02;60.77
32735;BME280;19112;51.076;3.706;2023-04-27T05:23:46;101618.38;;;6.91;60.49
32735;BME280;19112;51.076;3.706;2023-04-27T05:26:17;101839.03;;;8.27;59.94
32735;BME280;19112;51.076;3.706;2023-04-27T05:28:44;101844.97;;;8.25;60.21
32735;BME280;19112;51.076;3.706;2023-04-27T05:31:11;101876.56;;;8.43;60.44
32735;BME280;19112;51.076;3.706;2023-04-27T05:33:37;101765.16;;;7.87;60.31
32735;BME280;19112;51.076;3.706;2023-04-27T05:36:03;101868.25;;;8.50;60.21
32735;BME280;19112;51.076;3.706;2023-04-27T05:38:29;101701.19;;;7.66;59.74
32735;BME280;19112;51.076;3.706;2023-04-27T05:40:58;101756.22;;;7.98;59.46
32735;BME280;19112;51.076;3.706;2023-04-27T05:43:25;101831.44;;;8.32;59.88
32735;BME280;19112;51.076;3.706;2023-04-27T05:45:52;101911.19;;;8.68;59.97
32735;BME280;19112;51.076;3.706;2023-04-27T05:48:18;101574.56;;;7.00;59.32
32735;BME280;19112;51.076;3.706;2023-04-27T05:50:44;101783.84;;;8.37;59.34
32735;BME280;19112;51.076;3.706;2023-04-27T05:53:10;101799.78;;;8.42;59.09
32735;BME280;19112;51.076;3.706;2023-04-27T05:55:36;101936.69;;;9.16;59.04
32735;BME280;19112;51.076;3.706;2023-04-27T05:58:03;101740.72;;;8.16;59.07
32735;BME280;19112;51.076;3.706;2023-04-27T06:00:29;101944.13;;;9.25;58.95
32735;BME280;19112;51.076;3.706;2023-04-27T06:02:55;101931.63;;;9.36;58.81
32735;BME280;19112;51.076;3.706;2023-04-27T06:05:21;101740.94;;;8.50;58.45
32735;BME280;19112;51.076;3.706;2023-04-27T06:07:47;101885.91;;;9.31;58.05
32735;BME280;19112;51.076;3.706;2023-04-27T06:10:14;101894.38;;;9.41;58.08
32735;BME280;19112;51.076;3.706;2023-04-27T06:12:40;101937.41;;;9.78;57.70
32735;BME280;19112;51.076;3.706;2023-04-27T06:15:07;101891.75;;;9.58;57.52
32735;BME280;19112;51.076;3.706;2023-04-27T06:17:38;101905.69;;;9.89;57.41
32735;BME280;19112;51.076;3.706;2023-04-27T06:20:05;101594.97;;;8.13;56.58
32735;BME280;19112;51.076;3.706;2023-04-27T06:22:32;101809.53;;;9.56;56.32
32735;BME280;19112;51.076;3.706;2023-04-27T06:24:58;101758.03;;;9.24;56.18
32735;BME280;19112;51.076;3.706;2023-04-27T06:27:24;101883.78;;;10.05;56.04
32735;BME280;19112;51.076;3.706;2023-04-27T06:29:50;101623.50;;;8.56;55.94
32735;BME280;19112;51.076;3.706;2023-04-27T06:32:16;101893.56;;;10.08;56.02
32735;BME280;19112;51.076;3.706;2023-04-27T06:34:42;101910.28;;;10.26;55.84
32735;BME280;19112;51.076;3.706;2023-04-27T06:37:08;101792.91;;;9.55;55.90
32735;BME280;19112;51.076;3.706;2023-04-27T06:39:34;101922.75;;;10.30;55.96
32735;BME280;19112;51.076;3.706;2023-04-27T06:42:01;101885.69;;;10.08;55.88
32735;BME280;19112;51.076;3.706;2023-04-27T06:44:29;101859.28;;;10.05;55.83
32735;BME280;19112;51.076;3.706;2023-04-27T06:46:55;101705.38;;;9.19;55.97
32735;BME280;19112;51.076;3.706;2023-04-27T06:49:21;101880.44;;;10.24;55.32
32735;BME280;19112;51.076;3.706;2023-04-27T06:51:48;101876.94;;;10.41;55.06
32735;BME280;19112;51.076;3.706;2023-04-27T06:54:14;101919.13;;;10.62;55.14
32735;BME280;19112;51.076;3.706;2023-04-27T06:56:39;101736.94;;;9.55;55.23
32735;BME280;19112;51.076;3.706;2023-04-27T06:59:07;101881.06;;;10.20;55.63
32735;BME280;19112;51.076;3.706;2023-04-27T07:01:33;101824.97;;;9.84;55.70
32735;BME280;19112;51.076;3.706;2023-04-27T07:03:59;101875.75;;;10.18;55.82
32735;BME280;19112;51.076;3.706;2023-04-27T07:06:25;101740.88;;;9.47;55.62
32735;BME280;19112;51.076;3.706;2023-04-27T07:08:51;101898.91;;;10.43;55.30
32735;BME280;19112;51.076;3.706;2023-04-27T07:11:17;101782.09;;;9.83;55.54
32735;BME280;19112;51.076;3.706;2023-04-27T07:13:43;101837.56;;;10.07;55.15
32735;BME280;19112;51.076;3.706;2023-04-27T07:16:08;101875.00;;;10.55;55.09
32735;BME280;19112;51.076;3.706;2023-04-27T07:18:34;101810.63;;;10.11;55.14
32735;BME280;19112;51.076;3.706;2023-04-27T07:21:00;101862.53;;;10.51;55.00
32735;BME280;19112;51.076;3.706;2023-04-27T07:23:26;101820.88;;;10.23;54.98
32735;BME280;19112;51.076;3.706;2023-04-27T07:25:52;101835.22;;;10.47;54.71
32735;BME280;19112;51.076;3.706;2023-04-27T07:28:18;101746.59;;;10.24;54.35
32735;BME280;19112;51.076;3.706;2023-04-27T07:30:44;101778.88;;;10.59;53.54
32735;BME280;19112;51.076;3.706;2023-04-27T07:33:11;101697.09;;;10.32;52.88
32735;BME280;19112;51.076;3.706;2023-04-27T07:35:38;101873.53;;;11.52;52.23
32735;BME280;19112;51.076;3.706;2023-04-27T07:38:04;101831.97;;;11.65;51.55
32735;BME280;19112;51.076;3.706;2023-04-27T07:40:30;101918.69;;;12.20;51.27
32735;BME280;19112;51.076;3.706;2023-04-27T07:42:57;101866.97;;;12.22;50.61
32735;BME280;19112;51.076;3.706;2023-04-27T07:45:23;101884.28;;;12.36;50.51
32735;BME280;19112;51.076;3.706;2023-04-27T07:47:59;101906.88;;;12.73;50.09
32735;BME280;19112;51.076;3.706;2023-04-27T07:50:28;101645.28;;;11.24;49.54
32735;BME280;19112;51.076;3.706;2023-04-27T07:52:55;101858.94;;;12.40;49.32
32735;BME280;19112;51.076;3.706;2023-04-27T07:55:22;101741.22;;;11.74;49.84
32735;BME280;19112;51.076;3.706;2023-04-27T07:57:50;101859.72;;;12.79;49.17
32735;BME280;19112;51.076;3.706;2023-04-27T08:00:17;101848.53;;;13.07;48.04
32735;BME280;19112;51.076;3.706;2023-04-27T08:02:43;101747.13;;;12.52;47.53
32735;BME280;19112;51.076;3.706;2023-04-27T08:05:09;101828.50;;;13.12;47.72
32735;BME280;19112;51.076;3.706;2023-04-27T08:07:35;101764.34;;;13.11;47.04
32735;BME280;19112;51.076;3.706;2023-04-27T08:10:00;101825.06;;;13.59;45.91
32735;BME280;19112;51.076;3.706;2023-04-27T08:12:26;101804.16;;;13.42;45.27
32735;BME280;19112;51.076;3.706;2023-04-27T08:14:52;101768.75;;;13.35;45.09
32735;BME280;19112;51.076;3.706;2023-04-27T08:17:19;101816.00;;;13.77;44.56
32735;BME280;19112;51.076;3.706;2023-04-27T08:19:46;101777.81;;;13.67;44.40
32735;BME280;19112;51.076;3.706;2023-04-27T08:22:12;101773.06;;;13.82;43.41
32735;BME280;19112;51.076;3.706;2023-04-27T08:24:38;101806.75;;;13.89;43.44
32735;BME280;19112;51.076;3.706;2023-04-27T08:27:07;101822.44;;;14.10;43.96
32735;BME280;19112;51.076;3.706;2023-04-27T08:29:34;101872.06;;;14.45;43.68
32735;BME280;19112;51.076;3.706;2023-04-27T08:32:02;101819.25;;;14.46;42.96
32735;BME280;19112;51.076;3.706;2023-04-27T08:34:28;101866.47;;;14.88;43.24
32735;BME280;19112;51.076;3.706;2023-04-27T08:36:55;101893.41;;;15.03;43.34
32735;BME280;19112;51.076;3.706;2023-04-27T08:39:23;101842.41;;;14.80;43.48
32735;BME280;19112;51.076;3.706;2023-04-27T08:41:49;101877.75;;;15.11;42.71
32735;BME280;19112;51.076;3.706;2023-04-27T08:44:14;101805.53;;;14.85;42.46
32735;BME280;19112;51.076;3.706;2023-04-27T08:46:40;101836.09;;;15.04;42.03
32735;BME280;19112;51.076;3.706;2023-04-27T08:49:06;101846.69;;;15.04;42.20
32735;BME280;19112;51.076;3.706;2023-04-27T08:51:33;101843.97;;;15.31;41.97
32735;BME280;19112;51.076;3.706;2023-04-27T08:53:59;101855.56;;;15.34;41.84
32735;BME280;19112;51.076;3.706;2023-04-27T08:56:28;101738.00;;;14.66;41.77
32735;BME280;19112;51.076;3.706;2023-04-27T08:58:55;101740.59;;;14.93;41.48
32735;BME280;19112;51.076;3.706;2023-04-27T09:01:22;101808.25;;;15.45;41.41
32735;BME280;19112;51.076;3.706;2023-04-27T09:03:58;101858.16;;;15.93;40.78
32735;BME280;19112;51.076;3.706;2023-04-27T09:06:33;101836.19;;;15.65;40.76
32735;BME280;19112;51.076;3.706;2023-04-27T09:09:01;101750.25;;;15.23;40.10
32735;BME280;19112;51.076;3.706;2023-04-27T09:11:37;101774.81;;;15.49;40.15
32735;BME280;19112;51.076;3.706;2023-04-27T09:14:17;101893.97;;;16.12;39.66
32735;BME280;19112;51.076;3.706;2023-04-27T09:16:44;101819.22;;;15.90;39.48
32735;BME280;19112;51.076;3.706;2023-04-27T09:19:09;101855.38;;;15.88;39.26
32735;BME280;19112;51.076;3.706;2023-04-27T09:21:36;101825.78;;;15.71;39.28
32735;BME280;19112;51.076;3.706;2023-04-27T09:24:12;101865.72;;;15.79;39.25
32735;BME280;19112;51.076;3.706;2023-04-27T09:26:39;101749.00;;;15.40;38.97
32735;BME280;19112;51.076;3.706;2023-04-27T09:29:07;101860.38;;;16.09;38.65
32735;BME280;19112;51.076;3.706;2023-04-27T09:31:34;101881.25;;;16.30;37.42
32735;BME280;19112;51.076;3.706;2023-04-27T09:34:01;101692.00;;;15.53;36.92
32735;BME280;19112;51.076;3.706;2023-04-27T09:36:29;101591.31;;;15.13;37.02
32735;BME280;19112;51.076;3.706;2023-04-27T09:38:57;101823.75;;;16.64;36.61
32735;BME280;19112;51.076;3.706;2023-04-27T09:41:24;101771.09;;;16.41;37.08
32735;BME280;19112;51.076;3.706;2023-04-27T09:43:51;101825.88;;;16.77;36.55
32735;BME280;19112;51.076;3.706;2023-04-27T09:46:19;101617.81;;;15.84;36.47
32735;BME280;19112;51.076;3.706;2023-04-27T09:48:46;101834.53;;;17.08;35.23
32735;BME280;19112;51.076;3.706;2023-04-27T09:51:14;101849.69;;;17.13;35.31
32735;BME280;19112;51.076;3.706;2023-04-27T09:53:48;101872.59;;;17.47;35.67
32735;BME280;19112;51.076;3.706;2023-04-27T09:59:51;101872.81;;;18.00;34.87
32735;BME280;19112;51.076;3.706;2023-04-27T10:02:22;101877.84;;;18.33;34.02
32735;BME280;19112;51.076;3.706;2023-04-27T10:05:24;101816.31;;;18.12;33.15
32735;BME280;19112;51.076;3.706;2023-04-27T10:07:54;101739.97;;;17.55;33.97
32735;BME280;19112;51.076;3.706;2023-04-27T10:10:20;101831.84;;;18.38;33.06
32735;BME280;19112;51.076;3.706;2023-04-27T10:13:01;101834.88;;;18.62;31.95
32735;BME280;19112;51.076;3.706;2023-04-27T10:15:28;101799.97;;;18.41;32.36
32735;BME280;19112;51.076;3.706;2023-04-27T10:17:54;101793.38;;;18.17;31.57
32735;BME280;19112;51.076;3.706;2023-04-27T10:20:36;101798.78;;;18.23;32.23
32735;BME280;19112;51.076;3.706;2023-04-27T10:23:02;101804.81;;;18.13;32.97
32735;BME280;19112;51.076;3.706;2023-04-27T10:25:37;101758.47;;;17.96;32.27
32735;BME280;19112;51.076;3.706;2023-04-27T10:28:04;101818.41;;;18.30;33.98
32735;BME280;19112;51.076;3.706;2023-04-27T10:30:37;101740.06;;;18.10;33.03
32735;BME280;19112;51.076;3.706;2023-04-27T10:33:08;101717.63;;;17.91;33.07
32735;BME280;19112;51.076;3.706;2023-04-27T10:35:40;101842.50;;;18.39;32.50
32735;BME280;19112;51.076;3.706;2023-04-27T10:40:36;101772.47;;;17.89;33.41
32735;BME280;19112;51.076;3.706;2023-04-27T10:43:16;101739.41;;;18.23;34.00
32735;BME280;19112;51.076;3.706;2023-04-27T10:45:43;101791.72;;;18.80;31.20
32735;BME280;19112;51.076;3.706;2023-04-27T10:48:13;101759.09;;;18.34;31.17
32735;BME280;19112;51.076;3.706;2023-04-27T10:50:40;101810.78;;;18.51;32.85
32735;BME280;19112;51.076;3.706;2023-04-27T10:53:07;101775.22;;;17.93;31.37
32735;BME280;19112;51.076;3.706;2023-04-27T10:55:34;101811.09;;;17.71;32.37
32735;BME280;19112;51.076;3.706;2023-04-27T10:58:01;101789.09;;;17.77;32.73
32735;BME280;19112;51.076;3.706;2023-04-27T11:00:35;101736.09;;;17.38;32.84
32735;BME280;19112;51.076;3.706;2023-04-27T11:03:29;101770.72;;;17.89;32.07
32735;BME280;19112;51.076;3.706;2023-04-27T11:06:03;101741.25;;;17.75;32.16
32735;BME280;19112;51.076;3.706;2023-04-27T11:08:30;101604.59;;;17.10;31.70
32735;BME280;19112;51.076;3.706;2023-04-27T11:10:57;101770.28;;;18.16;31.63
32735;BME280;19112;51.076;3.706;2023-04-27T11:13:25;101763.16;;;18.12;31.60
32735;BME280;19112;51.076;3.706;2023-04-27T11:15:57;101769.25;;;17.60;31.87
32735;BME280;19112;51.076;3.706;2023-04-27T11:18:30;101757.78;;;17.62;32.38
32735;BME280;19112;51.076;3.706;2023-04-27T11:21:17;101582.94;;;16.44;31.25
32735;BME280;19112;51.076;3.706;2023-04-27T11:23:43;101703.06;;;16.80;31.85
32735;BME280;19112;51.076;3.706;2023-04-27T11:26:18;101760.78;;;17.34;31.33
32735;BME280;19112;51.076;3.706;2023-04-27T11:31:22;101588.81;;;16.30;33.67
32735;BME280;19112;51.076;3.706;2023-04-27T11:33:48;101721.28;;;17.05;32.13
32735;BME280;19112;51.076;3.706;2023-04-27T11:36:18;101738.25;;;17.13;31.18
32735;BME280;19112;51.076;3.706;2023-04-27T11:38:46;101759.44;;;17.10;31.32
32735;BME280;19112;51.076;3.706;2023-04-27T11:41:12;101707.22;;;16.70;31.76
32735;BME280;19112;51.076;3.706;2023-04-27T11:43:43;101740.31;;;16.86;31.60
32735;BME280;19112;51.076;3.706;2023-04-27T11:46:12;101768.72;;;16.90;31.97
32735;BME280;19112;51.076;3.706;2023-04-27T11:48:38;101645.47;;;16.35;31.95
32735;BME280;19112;51.076;3.706;2023-04-27T11:51:08;101707.53;;;16.44;32.15
32735;BME280;19112;51.076;3.706;2023-04-27T11:53:38;101522.09;;;15.67;32.85
32735;BME280;19112;51.076;3.706;2023-04-27T11:56:09;101603.72;;;15.85;32.30
32735;BME280;19112;51.076;3.706;2023-04-27T11:58:38;101659.03;;;16.09;33.19
32735;BME280;19112;51.076;3.706;2023-04-27T12:01:05;101706.53;;;16.77;32.67
32735;BME280;19112;51.076;3.706;2023-04-27T12:03:32;101702.94;;;16.73;32.15
32735;BME280;19112;51.076;3.706;2023-04-27T12:05:58;101678.13;;;16.71;35.31
32735;BME280;19112;51.076;3.706;2023-04-27T12:08:24;101721.78;;;16.87;32.75
32735;BME280;19112;51.076;3.706;2023-04-27T12:10:51;101687.56;;;16.60;31.96
32735;BME280;19112;51.076;3.706;2023-04-27T12:13:16;101689.44;;;16.66;33.03
32735;BME280;19112;51.076;3.706;2023-04-27T12:15:42;101650.19;;;16.48;31.75
32735;BME280;19112;51.076;3.706;2023-04-27T12:18:09;101597.94;;;16.03;32.53
32735;BME280;19112;51.076;3.706;2023-04-27T12:20:35;101745.00;;;16.99;33.10
32735;BME280;19112;51.076;3.706;2023-04-27T12:23:01;101711.00;;;16.78;33.29
32735;BME280;19112;51.076;3.706;2023-04-27T12:25:27;101559.41;;;15.77;33.17
32735;BME280;19112;51.076;3.706;2023-04-27T12:27:53;101537.47;;;15.84;33.56
32735;BME280;19112;51.076;3.706;2023-04-27T12:30:21;101668.84;;;16.93;34.78
32735;BME280;19112;51.076;3.706;2023-04-27T12:32:47;101666.91;;;17.28;32.93
32735;BME280;19112;51.076;3.706;2023-04-27T12:35:13;101591.09;;;16.96;30.66
32735;BME280;19112;51.076;3.706;2023-04-27T12:37:39;101460.59;;;16.23;30.31
32735;BME280;19112;51.076;3.706;2023-04-27T12:40:06;101638.06;;;17.48;29.19
32735;BME280;19112;51.076;3.706;2023-04-27T12:42:34;101703.69;;;18.05;31.38
32735;BME280;19112;51.076;3.706;2023-04-27T12:45:00;101702.84;;;18.06;30.52
32735;BME280;19112;51.076;3.706;2023-04-27T12:47:26;101657.22;;;17.79;30.35
32735;BME280;19112;51.076;3.706;2023-04-27T12:49:52;101653.03;;;17.95;31.15
32735;BME280;19112;51.076;3.706;2023-04-27T12:52:18;101679.94;;;18.16;30.49
32735;BME280;19112;51.076;3.706;2023-04-27T12:54:44;101645.63;;;17.74;30.40
32735;BME280;19112;51.076;3.706;2023-04-27T12:57:11;101598.31;;;17.53;30.96
32735;BME280;19112;51.076;3.706;2023-04-27T12:59:37;101626.31;;;17.86;30.56
32735;BME280;19112;51.076;3.706;2023-04-27T13:02:03;101579.53;;;17.95;30.25
32735;BME280;19112;51.076;3.706;2023-04-27T13:04:30;101689.53;;;18.67;28.64